Time;durP1;ratioP1;P1;durP2;ratioP2;P2;SDS_P1;SDS_P2;PMS_P1;PMS_P2;Temp;Humidity;BMP_temperature;BMP_pressure;BME280_temperature;BME280_humidity;BME280_pressure;Samples;Min_cycle;Max_cycle;Signal;HPM_P1;HPM_P2
2023/05/12 00:01:56;;;;;;;28.88;23.45;;;16.70;99.90;;;;;;5032557;28;20067;-67
2023/05/12 00:04:21;;;;;;;27.80;23.75;;;16.70;99.90;;;;;;5032548;28;20075;-68
2023/05/12 00:06:47;;;;;;;27.92;24.10;;;16.70;99.90;;;;;;5032403;28;20038;-66
2023/05/12 00:09:13;;;;;;;27.20;24.30;;;16.80;99.90;;;;;;5032596;28;20030;-67
2023/05/12 00:11:38;;;;;;;27.48;24.35;;;16.70;99.90;;;;;;5032215;28;20071;-67
2023/05/12 00:14:05;;;;;;;26.63;23.80;;;16.70;99.90;;;;;;5032041;28;20026;-67
2023/05/12 00:16:30;;;;;;;28.35;24.85;;;16.70;99.90;;;;;;5032358;28;20013;-67
2023/05/12 00:18:56;;;;;;;28.40;25.50;;;16.70;99.90;;;;;;5032308;28;20450;-67
2023/05/12 00:21:22;;;;;;;29.15;25.63;;;16.70;99.90;;;;;;5032293;28;20470;-67
2023/05/12 00:23:47;;;;;;;31.10;26.80;;;16.60;99.90;;;;;;5032149;28;20025;-67
2023/05/12 00:26:13;;;;;;;31.50;27.08;;;16.80;99.90;;;;;;5032527;28;20529;-67
2023/05/12 00:28:38;;;;;;;30.23;26.70;;;16.70;99.90;;;;;;5035512;28;20041;-68
2023/05/12 00:31:04;;;;;;;30.33;26.30;;;16.70;99.90;;;;;;5036170;28;20025;-67
2023/05/12 00:33:30;;;;;;;31.40;27.38;;;16.70;99.90;;;;;;5035740;28;20041;-67
2023/05/12 00:35:55;;;;;;;31.73;28.33;;;16.70;99.90;;;;;;5036017;28;20018;-67
2023/05/12 00:38:21;;;;;;;31.27;27.98;;;16.70;99.90;;;;;;5035704;28;20025;-67
2023/05/12 00:40:46;;;;;;;31.95;28.40;;;16.70;99.90;;;;;;5035695;28;20026;-67
2023/05/12 00:43:12;;;;;;;32.63;28.35;;;16.70;99.90;;;;;;5035350;28;20025;-67
2023/05/12 00:45:38;;;;;;;33.78;28.55;;;16.60;99.90;;;;;;5035753;28;20033;-68
2023/05/12 00:48:05;;;;;;;32.65;29.15;;;16.70;99.90;;;;;;5035737;28;20032;-66
2023/05/12 00:50:31;;;;;;;31.35;28.10;;;16.70;99.90;;;;;;5035670;28;20462;-68
2023/05/12 00:52:59;;;;;;;33.97;28.63;;;16.60;99.90;;;;;;5035527;28;20036;-67
2023/05/12 00:55:25;;;;;;;34.22;30.60;;;16.60;99.90;;;;;;5035697;28;20382;-67
2023/05/12 00:57:51;;;;;;;35.70;31.73;;;16.60;99.90;;;;;;5035245;28;20021;-67
2023/05/12 01:00:17;;;;;;;34.15;30.50;;;16.60;99.90;;;;;;5035436;28;20128;-68
2023/05/12 01:02:43;;;;;;;37.85;31.67;;;16.60;99.90;;;;;;5035822;28;20036;-67
2023/05/12 01:05:09;;;;;;;33.03;28.17;;;16.70;99.90;;;;;;5035604;28;20025;-67
2023/05/12 01:07:35;;;;;;;36.55;30.08;;;16.60;99.90;;;;;;5034406;28;20025;-67
2023/05/12 01:10:01;;;;;;;32.70;28.92;;;16.70;99.90;;;;;;5035353;28;20108;-68
2023/05/12 01:12:27;;;;;;;35.60;30.92;;;16.60;99.90;;;;;;5035040;28;20028;-67
2023/05/12 01:14:54;;;;;;;33.10;29.50;;;16.60;99.90;;;;;;5035408;28;20017;-68
2023/05/12 01:17:23;;;;;;;36.95;31.10;;;16.60;99.90;;;;;;5035530;28;20083;-67
2023/05/12 01:19:52;;;;;;;32.78;28.85;;;16.60;99.90;;;;;;5033746;28;20441;-66
2023/05/12 01:22:18;;;;;;;35.63;29.30;;;16.60;99.90;;;;;;5035318;28;20025;-66
2023/05/12 01:24:53;;;;;;;31.60;28.20;;;16.60;99.90;;;;;;5035001;28;20022;-66
2023/05/12 01:27:20;;;;;;;34.13;30.42;;;16.60;99.90;;;;;;5034954;28;20083;-66
2023/05/12 01:29:47;;;;;;;32.90;29.40;;;16.60;99.90;;;;;;5034905;28;20029;-66
2023/05/12 01:32:14;;;;;;;31.20;26.83;;;16.60;99.90;;;;;;5035171;28;20471;-66
2023/05/12 01:34:41;;;;;;;31.33;27.92;;;16.50;99.90;;;;;;5034984;28;20029;-66
2023/05/12 01:37:08;;;;;;;32.22;27.73;;;16.60;99.90;;;;;;5034608;28;20022;-66
2023/05/12 01:39:34;;;;;;;31.08;27.88;;;16.60;99.90;;;;;;5034530;28;20398;-66
2023/05/12 01:42:00;;;;;;;30.48;27.17;;;16.60;99.90;;;;;;5034409;28;20493;-66
2023/05/12 01:44:25;;;;;;;29.90;26.63;;;16.60;99.90;;;;;;5034786;28;20029;-66
2023/05/12 01:46:51;;;;;;;29.30;26.15;;;16.50;99.90;;;;;;5034816;28;20528;-66
2023/05/12 01:49:16;;;;;;;29.38;26.30;;;16.50;99.90;;;;;;5034702;28;20026;-66
2023/05/12 01:51:42;;;;;;;27.23;24.30;;;16.50;99.90;;;;;;5034805;28;20022;-65
2023/05/12 01:54:08;;;;;;;26.30;23.50;;;16.60;99.90;;;;;;5034240;28;20069;-65
2023/05/12 01:56:33;;;;;;;26.13;23.42;;;16.50;99.90;;;;;;5034844;28;20036;-65
2023/05/12 01:58:59;;;;;;;24.15;21.52;;;16.50;99.90;;;;;;5034475;28;20117;-66
2023/05/12 02:01:27;;;;;;;22.80;20.48;;;16.50;99.90;;;;;;5034685;28;20027;-66
2023/05/12 02:03:54;;;;;;;23.42;21.02;;;16.50;99.90;;;;;;5034285;28;20470;-66
2023/05/12 02:06:20;;;;;;;23.95;21.45;;;16.50;99.90;;;;;;5034401;28;20105;-66
2023/05/12 02:08:46;;;;;;;24.75;22.15;;;16.50;99.90;;;;;;5034267;28;20049;-65
2023/05/12 02:11:11;;;;;;;23.55;21.20;;;16.40;99.90;;;;;;5034308;28;20063;-66
2023/05/12 02:13:37;;;;;;;25.45;22.63;;;16.40;99.90;;;;;;5034373;28;20061;-65
2023/05/12 02:16:03;;;;;;;23.80;21.38;;;16.40;99.90;;;;;;5034072;28;20021;-66
2023/05/12 02:18:28;;;;;;;23.48;21.08;;;16.50;99.90;;;;;;5032959;28;20084;-66
2023/05/12 02:20:54;;;;;;;17.38;15.57;;;16.50;99.90;;;;;;5034098;28;20033;-65
2023/05/12 02:23:20;;;;;;;15.15;13.38;;;16.60;99.90;;;;;;5033995;28;20018;-66
2023/05/12 02:25:46;;;;;;;13.57;12.27;;;16.60;99.90;;;;;;5034005;28;20029;-67
2023/05/12 02:28:11;;;;;;;13.50;10.95;;;16.60;99.90;;;;;;5033850;28;20038;-67
2023/05/12 02:30:37;;;;;;;11.55;9.50;;;16.50;99.90;;;;;;5034023;28;20037;-67
2023/05/12 02:33:04;;;;;;;9.70;8.48;;;16.50;99.90;;;;;;5032864;28;20511;-67
2023/05/12 02:35:30;;;;;;;9.80;7.35;;;16.50;99.90;;;;;;5033891;28;20032;-67
2023/05/12 02:37:56;;;;;;;9.00;7.40;;;16.50;99.90;;;;;;5031924;28;20483;-67
2023/05/12 02:40:22;;;;;;;8.73;7.07;;;16.50;99.90;;;;;;5033732;28;20467;-67
2023/05/12 02:42:48;;;;;;;8.88;6.88;;;16.60;99.90;;;;;;5033797;28;20032;-67
2023/05/12 02:45:13;;;;;;;7.25;6.55;;;16.50;99.90;;;;;;5033670;28;20033;-67
2023/05/12 02:47:39;;;;;;;8.77;7.28;;;16.50;99.90;;;;;;5033646;28;20382;-66
2023/05/12 02:50:05;;;;;;;10.80;7.78;;;16.40;99.90;;;;;;5032663;28;20037;-67
2023/05/12 02:52:31;;;;;;;9.13;6.82;;;16.50;99.90;;;;;;5033315;28;20018;-66
2023/05/12 02:54:57;;;;;;;7.40;6.63;;;16.40;99.90;;;;;;5033671;28;20072;-66
2023/05/12 02:57:22;;;;;;;7.68;6.85;;;16.40;99.90;;;;;;5032259;28;20068;-67
2023/05/12 02:59:48;;;;;;;7.47;6.75;;;16.40;99.90;;;;;;5033612;28;20394;-66
2023/05/12 03:02:13;;;;;;;10.75;7.43;;;16.40;99.90;;;;;;5045074;28;20025;-66
2023/05/12 03:04:39;;;;;;;7.80;6.85;;;16.40;99.90;;;;;;5038996;28;20455;-67
2023/05/12 03:07:06;;;;;;;7.70;6.30;;;16.30;99.90;;;;;;5030641;28;20026;-67
2023/05/12 03:09:31;;;;;;;7.93;6.10;;;16.30;99.90;;;;;;5032670;28;20026;-66
2023/05/12 03:11:57;;;;;;;7.18;6.35;;;16.30;99.90;;;;;;5033555;28;20021;-67
2023/05/12 03:14:22;;;;;;;9.38;6.90;;;16.20;99.90;;;;;;5033286;28;20040;-66
2023/05/12 03:16:48;;;;;;;8.55;6.50;;;16.20;99.90;;;;;;5032935;28;20018;-66
2023/05/12 03:19:14;;;;;;;7.57;6.45;;;16.30;99.90;;;;;;5032939;28;20037;-67
2023/05/12 03:21:40;;;;;;;7.57;6.47;;;16.30;99.90;;;;;;5033074;28;20041;-66
2023/05/12 03:24:06;;;;;;;6.82;5.82;;;16.30;99.90;;;;;;5031099;28;20021;-67
2023/05/12 03:26:32;;;;;;;8.23;5.93;;;16.30;99.90;;;;;;5032883;28;20433;-67
2023/05/12 03:28:57;;;;;;;7.28;6.05;;;16.30;99.90;;;;;;5033020;28;20044;-67
2023/05/12 03:31:23;;;;;;;6.75;5.05;;;16.30;99.90;;;;;;5032844;28;20025;-67
2023/05/12 03:33:48;;;;;;;7.00;5.00;;;16.40;99.90;;;;;;5033051;28;20018;-67
2023/05/12 03:36:14;;;;;;;7.22;5.43;;;16.30;99.90;;;;;;5032605;28;20521;-67
2023/05/12 03:38:40;;;;;;;6.85;5.05;;;16.20;99.90;;;;;;5032352;28;20040;-67
2023/05/12 03:41:06;;;;;;;7.85;5.00;;;16.30;99.90;;;;;;5032836;28;20021;-67
2023/05/12 03:43:31;;;;;;;8.25;4.95;;;16.30;99.90;;;;;;5032773;28;20084;-65
2023/05/12 03:45:57;;;;;;;6.40;4.93;;;16.20;99.90;;;;;;5032979;28;20360;-66
2023/05/12 03:48:23;;;;;;;6.05;4.65;;;16.30;99.90;;;;;;5032706;28;20029;-66
2023/05/12 03:50:48;;;;;;;7.85;4.45;;;16.30;99.90;;;;;;5032638;28;20064;-66
2023/05/12 03:53:14;;;;;;;4.05;3.00;;;16.40;99.90;;;;;;5032562;28;20018;-67
2023/05/12 03:55:40;;;;;;;3.13;2.80;;;16.40;99.90;;;;;;5032801;28;20029;-67
2023/05/12 03:58:06;;;;;;;2.85;1.95;;;16.40;99.90;;;;;;5032482;28;20033;-66
2023/05/12 04:00:32;;;;;;;3.30;2.63;;;16.50;99.90;;;;;;5033666;28;20061;-67
2023/05/12 04:02:59;;;;;;;3.03;2.10;;;16.40;99.90;;;;;;5036651;28;20037;-68
2023/05/12 04:05:24;;;;;;;3.53;2.88;;;16.50;99.90;;;;;;5036493;28;20036;-67
2023/05/12 04:07:50;;;;;;;2.45;2.03;;;16.50;99.90;;;;;;5036537;28;20017;-67
2023/05/12 04:10:16;;;;;;;4.22;3.00;;;16.40;99.90;;;;;;5036646;28;20021;-67
2023/05/12 04:12:41;;;;;;;4.53;3.38;;;16.50;99.90;;;;;;5036621;28;20026;-67
2023/05/12 04:15:07;;;;;;;5.97;4.05;;;16.50;99.90;;;;;;5036578;28;20029;-67
2023/05/12 04:17:33;;;;;;;4.60;3.60;;;16.40;99.90;;;;;;5036464;28;20099;-67
2023/05/12 04:19:59;;;;;;;3.42;2.97;;;16.40;99.90;;;;;;5036221;28;20033;-67
2023/05/12 04:22:25;;;;;;;5.15;3.67;;;16.50;99.90;;;;;;5036233;28;20053;-66
2023/05/12 04:24:50;;;;;;;3.42;3.08;;;16.50;99.90;;;;;;5036604;28;20100;-67
2023/05/12 04:27:16;;;;;;;6.45;4.45;;;16.50;99.90;;;;;;5036165;28;20033;-67
2023/05/12 04:29:42;;;;;;;6.13;3.85;;;16.40;99.90;;;;;;5036390;28;20045;-67
2023/05/12 04:32:07;;;;;;;4.95;3.67;;;16.50;99.90;;;;;;5036156;28;20033;-67
2023/05/12 04:34:33;;;;;;;6.88;3.53;;;16.50;99.90;;;;;;5035805;28;20474;-67
2023/05/12 04:36:59;;;;;;;6.13;3.83;;;16.50;99.90;;;;;;5036301;28;20025;-67
2023/05/12 04:39:25;;;;;;;4.68;3.08;;;16.50;99.90;;;;;;5035063;28;20048;-67
2023/05/12 04:41:50;;;;;;;5.03;2.85;;;16.50;99.90;;;;;;5036006;28;20441;-67
2023/05/12 04:44:16;;;;;;;7.40;3.60;;;16.50;99.90;;;;;;5034692;28;20029;-67
2023/05/12 04:46:42;;;;;;;5.70;3.70;;;16.40;99.90;;;;;;5034787;28;20044;-67
2023/05/12 04:49:08;;;;;;;7.32;4.35;;;16.40;99.90;;;;;;5035621;28;20021;-67
2023/05/12 04:51:33;;;;;;;5.75;3.83;;;16.40;99.90;;;;;;5034727;28;20032;-67
2023/05/12 04:53:59;;;;;;;3.38;3.08;;;16.40;99.90;;;;;;5035616;28;20029;-67
2023/05/12 04:56:24;;;;;;;5.53;4.75;;;16.40;99.90;;;;;;5035696;28;20029;-67
2023/05/12 04:58:50;;;;;;;6.75;5.38;;;16.30;99.90;;;;;;5035639;28;20044;-67
2023/05/12 05:01:16;;;;;;;8.45;5.20;;;16.30;99.90;;;;;;5045404;28;20370;-67
2023/05/12 05:03:41;;;;;;;7.05;5.68;;;16.20;99.90;;;;;;5055016;28;20109;-68
2023/05/12 05:06:07;;;;;;;6.13;5.50;;;16.30;99.90;;;;;;5055352;28;20017;-67
2023/05/12 05:08:33;;;;;;;6.40;5.55;;;16.20;99.90;;;;;;5054473;28;20497;-67
2023/05/12 05:10:58;;;;;;;6.57;5.00;;;16.30;99.90;;;;;;5055611;28;20039;-67
2023/05/12 05:13:24;;;;;;;7.35;5.60;;;16.40;99.90;;;;;;5054309;28;20075;-67
2023/05/12 05:15:51;;;;;;;7.40;5.75;;;16.30;99.90;;;;;;5055231;28;20031;-67
2023/05/12 05:18:17;;;;;;;6.93;4.72;;;16.40;99.90;;;;;;5049864;28;20108;-68
2023/05/12 05:20:44;;;;;;;7.38;5.15;;;16.40;99.90;;;;;;5039968;28;20052;-70
2023/05/12 05:23:10;;;;;;;6.28;5.22;;;16.30;99.90;;;;;;5053994;28;20072;-69
2023/05/12 05:25:35;;;;;;;5.57;4.63;;;16.40;99.90;;;;;;5053865;28;20529;-67
2023/05/12 05:28:01;;;;;;;6.05;4.05;;;16.40;99.90;;;;;;5054958;28;20029;-67
2023/05/12 05:30:27;;;;;;;5.95;4.05;;;16.40;99.90;;;;;;5062800;28;20055;-67
2023/05/12 05:32:52;;;;;;;4.80;3.05;;;16.30;99.90;;;;;;5074868;28;20473;-68
2023/05/12 05:35:18;;;;;;;4.32;3.92;;;16.30;99.90;;;;;;5075012;28;20397;-67
2023/05/12 05:37:44;;;;;;;5.35;3.75;;;16.40;99.90;;;;;;5066499;28;20088;-67
2023/05/12 05:40:10;;;;;;;5.20;3.95;;;16.30;99.90;;;;;;5054385;28;20040;-67
2023/05/12 05:42:35;;;;;;;7.30;5.25;;;16.20;99.90;;;;;;5045107;28;20510;-69
2023/05/12 05:45:01;;;;;;;7.30;6.07;;;16.30;99.90;;;;;;5034792;28;20022;-69
2023/05/12 05:47:27;;;;;;;7.10;5.70;;;16.30;99.90;;;;;;5044668;28;20020;-69
2023/05/12 05:49:53;;;;;;;8.30;5.78;;;16.30;99.90;;;;;;5035423;28;20033;-69
2023/05/12 05:52:19;;;;;;;9.30;5.85;;;16.20;99.90;;;;;;5042016;28;20026;-69
2023/05/12 05:54:45;;;;;;;6.70;5.70;;;16.10;99.90;;;;;;5041211;28;20529;-69
2023/05/12 05:57:10;;;;;;;5.68;4.75;;;16.10;99.90;;;;;;5044515;28;20544;-69
2023/05/12 05:59:37;;;;;;;7.40;4.78;;;16.20;99.90;;;;;;5038344;28;20038;-69
2023/05/12 06:02:02;;;;;;;5.50;4.20;;;16.10;99.90;;;;;;5046841;28;20021;-69
2023/05/12 06:04:28;;;;;;;5.63;5.00;;;16.10;99.90;;;;;;5033486;28;20033;-70
2023/05/12 06:06:54;;;;;;;6.05;5.07;;;16.10;99.90;;;;;;5040896;28;20032;-69
2023/05/12 06:09:19;;;;;;;5.55;4.03;;;16.10;99.90;;;;;;5042855;28;20076;-70
2023/05/12 06:11:45;;;;;;;5.65;4.40;;;16.10;99.90;;;;;;5051408;28;20025;-70
2023/05/12 06:14:11;;;;;;;4.25;3.85;;;16.10;99.90;;;;;;5039305;28;20094;-70
2023/05/12 06:16:36;;;;;;;5.93;4.03;;;16.00;99.90;;;;;;5040126;28;20029;-68
2023/05/12 06:19:02;;;;;;;5.28;3.53;;;16.10;99.90;;;;;;5040163;28;20633;-69
2023/05/12 06:21:28;;;;;;;4.78;3.55;;;16.00;99.90;;;;;;5043779;28;20079;-65
2023/05/12 06:23:55;;;;;;;4.72;3.35;;;16.00;99.90;;;;;;5030834;28;20068;-68
2023/05/12 06:26:21;;;;;;;4.32;3.85;;;16.00;99.90;;;;;;5046097;28;20075;-68
2023/05/12 06:28:47;;;;;;;3.80;3.33;;;15.90;99.90;;;;;;5038344;28;20068;-68
2023/05/12 06:31:12;;;;;;;4.05;3.65;;;15.90;99.90;;;;;;5044289;28;20064;-68
2023/05/12 06:33:38;;;;;;;4.72;3.25;;;15.90;99.90;;;;;;5053466;28;20033;-68
2023/05/12 06:36:04;;;;;;;4.07;3.33;;;15.90;99.90;;;;;;5053553;28;20025;-68
2023/05/12 06:38:30;;;;;;;3.58;3.25;;;16.00;99.90;;;;;;5053722;28;20061;-69
2023/05/12 06:40:55;;;;;;;5.55;3.72;;;16.00;99.90;;;;;;5053532;28;20102;-68
2023/05/12 06:43:22;;;;;;;6.45;4.93;;;15.90;99.90;;;;;;5053391;28;20035;-68
2023/05/12 06:45:47;;;;;;;6.22;4.60;;;15.90;99.90;;;;;;5053323;28;20049;-68
2023/05/12 06:48:13;;;;;;;5.88;5.25;;;15.90;99.90;;;;;;5052288;28;20098;-68
2023/05/12 06:50:39;;;;;;;7.10;5.47;;;15.80;99.90;;;;;;5053392;28;20478;-69
2023/05/12 06:53:06;;;;;;;5.78;5.20;;;15.80;99.90;;;;;;5053557;28;20107;-68
2023/05/12 06:55:33;;;;;;;6.90;6.20;;;15.90;99.90;;;;;;5053473;28;20547;-68
2023/05/12 06:57:58;;;;;;;6.93;6.22;;;15.90;99.90;;;;;;5053454;28;20025;-69
2023/05/12 07:00:24;;;;;;;6.40;5.80;;;15.80;99.90;;;;;;5053043;28;20371;-68
2023/05/12 07:02:51;;;;;;;7.68;6.68;;;15.90;99.90;;;;;;5053448;28;20029;-69
2023/05/12 07:05:17;;;;;;;6.30;5.70;;;15.90;99.90;;;;;;5053383;28;20033;-68
2023/05/12 07:07:43;;;;;;;6.88;5.90;;;15.90;99.90;;;;;;5051896;28;20127;-68
2023/05/12 07:10:10;;;;;;;6.70;6.10;;;15.80;99.90;;;;;;5053199;28;20021;-69
2023/05/12 07:12:36;;;;;;;5.72;5.18;;;15.90;99.90;;;;;;5053040;28;20434;-67
2023/05/12 07:15:02;;;;;;;7.18;6.00;;;15.90;99.90;;;;;;5051834;28;20470;-68
2023/05/12 07:17:28;;;;;;;7.78;7.00;;;15.90;99.90;;;;;;5051810;28;20025;-68
2023/05/12 07:19:54;;;;;;;6.65;5.93;;;15.80;99.90;;;;;;5052868;28;20040;-68
2023/05/12 07:22:20;;;;;;;8.43;6.30;;;15.90;99.90;;;;;;5052919;28;20378;-69
2023/05/12 07:24:46;;;;;;;7.57;6.82;;;15.80;99.90;;;;;;5052727;28;20493;-68
2023/05/12 07:27:12;;;;;;;7.10;6.38;;;15.90;99.90;;;;;;5052408;28;20025;-69
2023/05/12 07:29:37;;;;;;;7.55;6.20;;;15.80;99.90;;;;;;5052991;28;20043;-69
2023/05/12 07:32:03;;;;;;;6.43;5.90;;;15.90;99.90;;;;;;5052713;28;20116;-67
2023/05/12 07:34:31;;;;;;;7.90;7.20;;;15.90;99.90;;;;;;5052965;28;20470;-68
2023/05/12 07:36:58;;;;;;;7.93;7.15;;;15.90;99.90;;;;;;5052151;28;20518;-68
2023/05/12 07:39:24;;;;;;;8.57;7.85;;;15.80;99.90;;;;;;5052630;28;20490;-69
2023/05/12 07:41:50;;;;;;;8.35;7.55;;;15.90;99.90;;;;;;5051135;28;20088;-69
2023/05/12 07:44:16;;;;;;;8.02;7.22;;;15.90;99.90;;;;;;5053021;28;20021;-68
2023/05/12 07:46:42;;;;;;;11.45;8.68;;;15.80;99.90;;;;;;5052680;28;20025;-68
2023/05/12 07:49:07;;;;;;;9.63;8.73;;;15.90;99.90;;;;;;5052726;28;20104;-68
2023/05/12 07:51:33;;;;;;;9.60;8.60;;;15.90;99.90;;;;;;5052466;28;20025;-68
2023/05/12 07:53:59;;;;;;;10.63;9.45;;;15.80;99.90;;;;;;5052496;28;20474;-69
2023/05/12 07:56:25;;;;;;;9.50;8.50;;;15.80;99.90;;;;;;5052641;28;20050;-69
2023/05/12 07:58:50;;;;;;;11.52;10.38;;;15.80;99.90;;;;;;5052548;28;20399;-68
2023/05/12 08:01:16;;;;;;;12.15;10.95;;;15.90;99.90;;;;;;5052798;28;20021;-68
2023/05/12 08:03:41;;;;;;;13.48;11.45;;;15.90;99.90;;;;;;5052470;28;20421;-68
2023/05/12 08:06:07;;;;;;;13.65;12.35;;;15.90;99.90;;;;;;5051075;28;20036;-69
2023/05/12 08:08:33;;;;;;;13.35;12.05;;;15.90;99.90;;;;;;5052344;28;20021;-69
2023/05/12 08:10:59;;;;;;;16.42;14.77;;;15.80;99.90;;;;;;5052256;28;20417;-68
2023/05/12 08:13:25;;;;;;;16.88;15.18;;;15.90;99.90;;;;;;5052445;28;20024;-68
2023/05/12 08:15:51;;;;;;;18.10;16.25;;;15.90;99.90;;;;;;5052485;28;20028;-69
2023/05/12 08:18:17;;;;;;;17.60;15.73;;;15.90;99.90;;;;;;5051013;28;20537;-69
2023/05/12 08:20:42;;;;;;;19.65;16.98;;;15.90;99.90;;;;;;5052527;28;20079;-68
2023/05/12 08:23:08;;;;;;;20.17;17.70;;;15.90;99.90;;;;;;5052071;28;20543;-68
2023/05/12 08:25:35;;;;;;;20.40;18.00;;;16.00;99.90;;;;;;5052231;28;20096;-69
2023/05/12 08:28:02;;;;;;;21.02;18.88;;;15.90;99.90;;;;;;5052030;28;20025;-68
2023/05/12 08:30:27;;;;;;;22.95;20.55;;;15.90;99.90;;;;;;5052348;28;20033;-69
2023/05/12 08:32:56;;;;;;;21.65;19.35;;;16.00;99.90;;;;;;5052252;28;20028;-68
2023/05/12 08:35:25;;;;;;;23.13;20.75;;;15.90;99.90;;;;;;5052232;28;20489;-68
2023/05/12 08:37:51;;;;;;;23.92;21.42;;;15.90;99.90;;;;;;5051987;28;20095;-69
2023/05/12 08:40:21;;;;;;;23.67;21.27;;;15.90;99.90;;;;;;5051877;28;20029;-68
2023/05/12 08:43:15;;;;;;;24.17;21.67;;;15.90;99.90;;;;;;5052099;28;20021;-69
2023/05/12 08:45:41;;;;;;;21.70;19.30;;;15.90;99.90;;;;;;5045373;28;20041;-69
2023/05/12 08:48:09;;;;;;;23.15;20.77;;;16.00;99.90;;;;;;5053582;28;20413;-69
2023/05/12 08:50:36;;;;;;;23.48;20.80;;;16.00;99.90;;;;;;5055899;28;20056;-69
2023/05/12 08:53:09;;;;;;;23.67;21.27;;;16.00;99.90;;;;;;5055463;28;20082;-68
2023/05/12 08:55:35;;;;;;;24.83;22.13;;;16.00;99.90;;;;;;5055428;28;20029;-68
2023/05/12 08:58:02;;;;;;;24.33;22.00;;;16.00;99.90;;;;;;5055485;28;20032;-69
2023/05/12 09:00:29;;;;;;;23.25;20.95;;;16.00;99.90;;;;;;5055662;28;20036;-69
2023/05/12 09:02:58;;;;;;;25.65;23.15;;;16.00;99.90;;;;;;5055588;28;20040;-70
2023/05/12 09:05:24;;;;;;;26.33;23.63;;;16.00;99.90;;;;;;5055376;28;20478;-69
2023/05/12 09:07:52;;;;;;;28.70;25.52;;;16.10;99.90;;;;;;5055351;28;20052;-68
2023/05/12 09:10:20;;;;;;;25.80;23.17;;;16.10;99.90;;;;;;5055048;28;20021;-68
2023/05/12 09:12:46;;;;;;;25.10;22.70;;;16.10;99.90;;;;;;5055551;28;20123;-68
2023/05/12 09:15:18;;;;;;;26.50;23.80;;;16.20;99.90;;;;;;5055016;28;20550;-68
2023/05/12 09:17:43;;;;;;;26.00;23.40;;;16.10;99.90;;;;;;5055370;28;20025;-68
2023/05/12 09:20:11;;;;;;;27.33;24.50;;;16.20;99.90;;;;;;5054945;28;20116;-69
2023/05/12 09:22:38;;;;;;;26.58;23.85;;;16.20;99.90;;;;;;5055203;28;20466;-69
2023/05/12 09:25:20;;;;;;;26.70;23.80;;;16.20;99.90;;;;;;5054842;28;20017;-69
2023/05/12 09:27:47;;;;;;;29.98;26.98;;;16.30;99.90;;;;;;5054853;28;20425;-69
2023/05/12 09:30:13;;;;;;;27.55;24.65;;;16.30;99.90;;;;;;5053665;28;20017;-68
2023/05/12 09:32:39;;;;;;;27.27;24.58;;;16.40;99.90;;;;;;5054978;28;20486;-68
2023/05/12 09:35:06;;;;;;;28.58;25.65;;;16.40;99.90;;;;;;5054888;28;20536;-69
2023/05/12 09:37:34;;;;;;;25.67;23.08;;;16.40;99.90;;;;;;5054777;28;20027;-70
2023/05/12 09:40:05;;;;;;;25.02;22.27;;;16.40;99.90;;;;;;5053065;28;20389;-69
2023/05/12 09:42:32;;;;;;;24.52;22.13;;;15.80;99.90;;;;;;5054626;28;20085;-68
2023/05/12 09:45:04;;;;;;;26.55;24.15;;;15.40;99.90;;;;;;5054744;28;20028;-68
2023/05/12 09:47:37;;;;;;;26.75;24.05;;;15.40;99.90;;;;;;5054737;28;20059;-71
2023/05/12 09:50:05;;;;;;;24.70;22.35;;;15.50;99.90;;;;;;5054559;28;20025;-68
2023/05/12 09:52:36;;;;;;;26.58;24.08;;;15.50;99.90;;;;;;5054173;28;20537;-68
2023/05/12 09:55:07;;;;;;;26.02;23.52;;;15.50;99.90;;;;;;5054400;28;20048;-69
2023/05/12 09:57:38;;;;;;;23.73;21.50;;;15.50;99.90;;;;;;5054326;28;20029;-68
2023/05/12 10:00:06;;;;;;;23.27;21.10;;;15.50;99.90;;;;;;5054078;28;20052;-69
2023/05/12 10:02:33;;;;;;;23.13;21.13;;;15.50;99.90;;;;;;5054670;28;20087;-69
2023/05/12 10:05:04;;;;;;;24.13;21.95;;;15.50;99.90;;;;;;5054321;28;20042;-69
2023/05/12 10:07:31;;;;;;;22.20;20.15;;;15.50;99.90;;;;;;5054450;28;20024;-69
2023/05/12 10:10:01;;;;;;;21.10;19.13;;;15.50;99.90;;;;;;5054413;28;20059;-69
2023/05/12 10:12:27;;;;;;;21.25;19.25;;;15.50;99.90;;;;;;5054207;28;20025;-69
2023/05/12 10:14:54;;;;;;;20.63;18.70;;;15.50;99.90;;;;;;5054218;28;20025;-69
2023/05/12 10:17:20;;;;;;;19.40;17.60;;;15.60;99.90;;;;;;5054120;28;20044;-69
2023/05/12 10:19:47;;;;;;;16.13;14.55;;;15.70;99.90;;;;;;5053719;28;20040;-69
2023/05/12 10:22:16;;;;;;;14.35;13.07;;;15.70;99.90;;;;;;5053846;28;20358;-69
2023/05/12 10:24:43;;;;;;;15.40;13.75;;;15.60;99.90;;;;;;5054078;28;20029;-69
2023/05/12 10:27:09;;;;;;;14.75;13.20;;;15.70;99.90;;;;;;5053679;28;20081;-69
2023/05/12 10:29:37;;;;;;;16.77;13.70;;;15.80;99.90;;;;;;5052609;28;20041;-69
2023/05/12 10:32:03;;;;;;;14.80;13.48;;;15.90;99.90;;;;;;5053763;28;20051;-69
2023/05/12 10:34:35;;;;;;;15.55;14.25;;;16.00;99.90;;;;;;5052583;28;20094;-70
2023/05/12 10:37:07;;;;;;;13.05;11.88;;;16.00;99.90;;;;;;5052167;28;20028;-70
2023/05/12 10:39:33;;;;;;;11.85;10.75;;;16.10;99.90;;;;;;5039435;28;20034;-68
2023/05/12 10:42:05;;;;;;;10.68;9.70;;;16.10;99.90;;;;;;5040989;28;20032;-67
2023/05/12 10:44:31;;;;;;;;;;;16.40;99.90;;;;;;5047201;28;20024;-70
2023/05/12 10:46:58;;;;;;;11.00;9.95;;;16.50;99.90;;;;;;5052202;28;19911;-69
2023/05/12 10:49:38;;;;;;;10.48;9.68;;;16.60;99.90;;;;;;5033653;28;20025;-67
2023/05/12 10:52:04;;;;;;;10.05;9.30;;;16.70;99.90;;;;;;5033180;28;20028;-68
2023/05/12 10:54:43;;;;;;;11.80;10.88;;;16.80;99.90;;;;;;5041835;28;20033;-67
2023/05/12 10:57:13;;;;;;;9.10;8.18;;;16.90;99.90;;;;;;5051954;28;20389;-67
2023/05/12 10:59:50;;;;;;;9.77;8.80;;;17.00;99.90;;;;;;5049404;28;20474;-67
2023/05/12 11:02:17;;;;;;;9.77;8.90;;;17.00;99.90;;;;;;5033239;28;20027;-68
2023/05/12 11:04:49;;;;;;;10.45;9.30;;;17.00;99.90;;;;;;5033107;28;20025;-69
2023/05/12 11:07:18;;;;;;;9.85;9.05;;;17.10;99.90;;;;;;5048853;28;20056;-67
2023/05/12 11:09:45;;;;;;;10.10;9.30;;;17.10;99.90;;;;;;5052793;28;20063;-68
2023/05/12 11:12:12;;;;;;;10.48;8.55;;;17.20;99.90;;;;;;5039425;28;20045;-67
2023/05/12 11:14:39;;;;;;;8.50;7.70;;;17.20;99.90;;;;;;5052897;28;20023;-67
2023/05/12 11:17:05;;;;;;;6.70;6.15;;;17.20;99.90;;;;;;5046580;28;20032;-67
2023/05/12 11:19:32;;;;;;;6.07;5.57;;;17.30;99.90;;;;;;5052818;28;20037;-66
2023/05/12 11:22:08;;;;;;;5.43;4.93;;;17.30;99.90;;;;;;5052940;28;20482;-67
2023/05/12 11:24:34;;;;;;;5.22;4.82;;;17.30;99.90;;;;;;5053056;28;20059;-67
2023/05/12 11:27:00;;;;;;;9.43;5.70;;;17.30;99.90;;;;;;5050560;28;20096;-67
2023/05/12 11:29:25;;;;;;;6.05;5.20;;;17.30;99.90;;;;;;5047944;28;20571;-66
2023/05/12 11:31:52;;;;;;;5.70;5.20;;;17.30;99.90;;;;;;5051382;28;20099;-67
2023/05/12 11:34:22;;;;;;;5.25;4.85;;;17.30;99.90;;;;;;5052697;28;20427;-68
2023/05/12 11:36:51;;;;;;;6.15;5.55;;;17.30;99.90;;;;;;5048502;28;20025;-67
2023/05/12 11:39:21;;;;;;;5.75;5.20;;;17.30;99.90;;;;;;5043938;28;20033;-67
2023/05/12 11:41:48;;;;;;;10.15;6.15;;;17.30;99.90;;;;;;5033436;28;20029;-67
2023/05/12 11:44:19;;;;;;;9.05;5.63;;;17.30;99.90;;;;;;5053053;28;20021;-67
2023/05/12 11:46:59;;;;;;;5.43;4.93;;;17.40;99.90;;;;;;5052804;28;20071;-65
2023/05/12 11:49:27;;;;;;;7.30;4.45;;;17.40;99.90;;;;;;5052344;28;20032;-67
2023/05/12 11:51:54;;;;;;;4.95;4.32;;;17.40;99.90;;;;;;5051599;28;20036;-67
2023/05/12 11:54:21;;;;;;;4.82;3.75;;;17.50;99.90;;;;;;5051111;28;20033;-67
2023/05/12 11:56:52;;;;;;;4.97;3.58;;;17.50;99.90;;;;;;5052637;28;20025;-68
2023/05/12 11:59:27;;;;;;;3.92;3.63;;;17.50;99.90;;;;;;5052480;28;20037;-68
2023/05/12 12:01:52;;;;;;;3.75;3.13;;;17.60;99.90;;;;;;5049740;28;20021;-67
2023/05/12 12:04:18;;;;;;;3.13;2.40;;;17.60;99.90;;;;;;5041047;28;20009;-66
2023/05/12 12:06:44;;;;;;;2.70;2.50;;;17.70;99.90;;;;;;5052551;28;20025;-67
2023/05/12 12:09:11;;;;;;;4.05;2.25;;;17.70;99.90;;;;;;5040256;28;20026;-67
2023/05/12 12:11:37;;;;;;;2.13;1.88;;;17.70;99.90;;;;;;5032628;28;20025;-67
2023/05/12 12:14:02;;;;;;;3.13;1.90;;;17.70;99.70;;;;;;5036200;28;20025;-67
2023/05/12 12:16:30;;;;;;;3.03;1.65;;;17.70;99.90;;;;;;5039292;28;20458;-66
2023/05/12 12:18:56;;;;;;;3.25;1.48;;;17.80;98.70;;;;;;5040221;28;20109;-67
2023/05/12 12:21:23;;;;;;;3.95;1.98;;;17.80;98.90;;;;;;5057049;28;20056;-67
2023/05/12 12:23:49;;;;;;;2.08;1.88;;;17.80;99.20;;;;;;5054940;28;20052;-67
2023/05/12 12:26:15;;;;;;;3.28;1.90;;;17.90;98.90;;;;;;5054007;28;20033;-67
2023/05/12 12:28:44;;;;;;;2.05;1.85;;;17.90;99.20;;;;;;5054589;28;20173;-67
2023/05/12 12:31:10;;;;;;;3.20;2.20;;;17.80;99.40;;;;;;5051643;28;20021;-66
2023/05/12 12:33:36;;;;;;;3.03;2.00;;;17.90;99.20;;;;;;5062757;28;20036;-68
2023/05/12 12:36:01;;;;;;;5.75;2.03;;;17.90;99.60;;;;;;5043956;28;20041;-68